NORTHWESTERN HAWAII ONE NM West Northwest of Kauai Island (51001)

Conditions for Monday

Daily
Weekly
Monthly
Marine Data Graph

Marine & Boating Location Search

Enter a coastal zip code for marine weather.

General Information

Location: 24.39 North -162.127 West
Buoy Type: 2.3-meter foam discus buoy
Buoy Hull: 2.3D06
Payload: SCOOP payload
Owned by: NDBC
Windspeed: Measured by obtained from anemometer
Sea Surface: Measured by Intake
Note: Station 51001 went adrift on 03/12/16 and the last report from its moored position was at 0130Z. It is still transmitting valid observation data, which continue to be reported here, but not from the location above. Click here to see latest positions.

Weather and Wave Data

Time Temp Humidity Wind Dominant Wave Wind Wave Wave Swell Pressure
  Air
(°F)
Water
(°F)
  Dir Speed
(kts)
Speed
(mph)
Period
(sec)
Height
(ft)
Range
(ft)
Period
(sec)
Height
(ft)
Range
(ft)
Period
(sec)
Height
(ft)
Range
(ft)
Atmo.
(in)
Tend.
(in)
20:00 75
-
79 NE 19.4 22.4 - - - - - - 30.09 +0.02
20:10 75 79 79 NE 21.4 24.6 - - - - - - 30.09 -
20:40 74 79 83 NE 19.4 22.4 - - - - - - 30.09 -
21:00 74
-
83 ENE 17.5 20.1 - - - - - - 30.08 -
21:20 76 79 76 NE 21.4 24.6 - - - - - - 30.06 -
21:50 76 79 75 NE 21.4 24.6 13 10.50 exactly 10.5 7 6.56 5.74 - 7.38 13 8.20 7.38 - 9.02 30.06 -
22:20 76 79 75 NE 21.4 24.6 - - - - - - 30.04 -
22:40 76 79 74 NE 19.4 22.4 - - - - - - 30.04 -
22:50 76 79 73 NE 21.4 24.6 11 10.17 exactly 10.2 9 6.56 5.74 - 7.38 11 6.56 5.74 - 7.38 30.03 -
23:10 77 79 71 NE 21.4 24.6 - - - - - - 30.03 -
23:50 77 79 68 NE 19.4 22.4 12 10.17 exactly 10.2 9 8.20 7.38 - 9.02 12 6.56 5.74 - 7.38 30.01 -
00:00 77
-
70 NE 19.4 22.4 - - - - - - 30.02 -0.06
00:10 77 80 70 NE 19.4 22.4 - - - - - - 30.02 -
00:20 77 80 71 NE 21.4 24.6 - - - - - - 30.01 -
00:30
-
-
- - - - - - - 30.01 -
00:40 77 80 72 NE 21.4 24.6 - - - - - - 30.01 -
01:30 77 80 72 NE 19.4 22.4 - - - - - - 30.01 -
01:50 77
-
70 NE 21.4 24.6 11 9.84 exactly 9.8 7 6.56 5.74 - 7.38 11 6.56 5.74 - 7.38 30.00 -
02:20 77 80 71 NE 19.4 22.4 - - - - - - 30.01 -
02:30 77 80 71 NE 19.4 22.4 - - - - - - 30.02 -
02:40 77 80 73 NE 19.4 22.4 - - - - - - 30.01 -
02:50 77 80 73 NE 19.4 22.4 11 9.84 exactly 9.8 8 6.56 5.74 - 7.38 11 6.56 5.74 - 7.38 30.02 -
03:20 77 80 74 NE 19.4 22.4 - - - - - - 30.02 -
03:30 77 80 73 NE 19.4 22.4 - - - - - - 30.03 -
03:40 77 80 73 NE 19.4 22.4 - - - - - - 30.03 -
03:50 77 80 70 NE 17.5 20.1 12 8.86 exactly 8.9 6 6.56 5.74 - 7.38 12 4.92 4.10 - 5.74 30.03 -
04:40 77 79 74 NE 19.4 22.4 - - - - - - 30.04 -
04:50 77 79 73 NE 19.4 22.4 11 8.53 exactly 8.5 7 6.56 5.74 - 7.38 11 4.92 4.10 - 5.74 30.04 -
05:10 77 79 74 ENE 19.4 22.4 - - - - - - 30.05 -
05:20 77 79 74 NE 19.4 22.4 - - - - - - 30.04 -
05:30 77 79 74 ENE 19.4 22.4 - - - - - - 30.05 -
05:40 77 79 74 ENE 19.4 22.4 - - - - - - 30.05 -
05:50 77 79 73 NE 21.4 24.6 11 8.53 exactly 8.5 6 6.56 5.74 - 7.38 11 4.92 4.10 - 5.74 30.06 -
06:10 77
-
71 NE 19.4 22.4 - - - - - - 30.06 -
06:30 77 79 70 ENE 19.4 22.4 - - - - - - 30.06 -
06:40 77 79 70 NE 19.4 22.4 - - - - - - 30.06 -
06:50 77
-
71 NE 19.4 22.4 11 9.19 exactly 9.2 7 6.56 5.74 - 7.38 11 6.56 5.74 - 7.38 30.07 -
07:00 77
-
70 NE 19.4 22.4 - - - - - - 30.07 +0.04
07:10 77 79 69 NE 19.4 22.4 - - - - - - 30.07 -
07:20 77
-
71 NE 19.4 22.4 - - - - - - 30.07 -
07:50 77 79 71 NE 19.4 22.4 11 8.53 exactly 8.5 7 6.56 5.74 - 7.38 11 4.92 4.10 - 5.74 30.08 -
08:50 77 79 70 NE 19.4 22.4 11 8.53 exactly 8.5 7 6.56 5.74 - 7.38 11 4.92 4.10 - 5.74 30.06 -
09:10 77 79 73 NE 19.4 22.4 - - - - - - 30.06 -
09:20 77 79 71 NE 19.4 22.4 - - - - - - 30.06 -
09:30 77 79 70 NE 17.5 20.1 - - - - - - 30.06 -
09:50 77 79 73 NE 17.5 20.1 11 7.87 exactly 7.9 7 6.56 5.74 - 7.38 11 4.92 4.10 - 5.74 30.06 -
10:10 77 79 74 NE 17.5 20.1 - - - - - - 30.05 -
10:20 77 79 73 NE 19.4 22.4 - - - - - - 30.04 -
10:30 77 79 73 ENE 21.4 24.6 - - - - - - 30.04 -
10:40 77 79 71 ENE 19.4 22.4 - - - - - - 30.04 -
11:00 77
-
73 NE 19.4 22.4 - - - - - - 30.04 -0.04
11:10 77
-
74 NE 19.4 22.4 - - - - - - 30.03 -
11:20 77 79 71 NE 19.4 22.4 - - - - - - 30.03 -
11:30 77
-
73 NE 19.4 22.4 - - - - - -
-
-
11:40 77 79 73 NE 19.4 22.4 - - - - - - 30.02 -
12:10 77 79 71 NE 19.4 22.4 - - - - - - 30.02 -
12:40 77 79 73 NE 19.4 22.4 - - - - - - 30.01 -
12:50 77 79 73 NE 19.4 22.4 10 8.20 exactly 8.2 7 6.56 5.74 - 7.38 10 4.92 4.10 - 5.74 30.01 -
13:10 77 79 70 NE 19.4 22.4 - - - - - - 30.00 -
13:30 77 79 72 NE 19.4 22.4 - - - - - - 30.00 -
13:40 77 79 77 NE 21.4 24.6 - - - - - - 30.00 -
14:10 77 79 73 NE 21.4 24.6 - - - - - - 29.99 -
14:30 77 79 73 NE 19.4 22.4 - - - - - - 29.99 -
15:10 77 79 72 NE 17.5 20.1 - - - - - - 29.99 -
15:30 77 79 73 ENE 17.5 20.1 - - - - - - 29.99 -
15:40 77 79 73 NE 19.4 22.4 - - - - - - 29.99 -
16:10 77 79 71 ENE 19.4 22.4 - - - - - - 29.99 -
16:20 77 79 73 ENE 19.4 22.4 - - - - - - 29.99 -
16:50 77 79 72 NE 19.4 22.4 7 8.53 exactly 8.5 7 8.20 7.38 - 9.02 11 3.28 2.46 - 4.10 30.00 -
17:10 77 79 70 ENE 17.5 20.1 - - - - - - 30.00 -
17:30 77 79 72 NE 17.5 20.1 - - - - - - 30.00 -
18:10 77 79 73 NE 19.4 22.4 - - - - - - 30.01 -
18:30 77 79 73 ENE 17.5 20.1 - - - - - - 30.01 -
18:40 77 79 73 ENE 17.5 20.1 - - - - - - 30.01 -
18:50 78 79 72 NE 17.5 20.1 8 8.20 exactly 8.2 7 4.92 4.10 - 5.74 8 6.56 5.74 - 7.38 30.01 -
19:00 78 79 69 NE 17.5 20.1 - - - - - - 30.01 +0.02
19:10 78 79 69 NE 17.5 20.1 - - - - - - 30.01 -
19:30 77 79 74 ENE 17.5 20.1 - - - - - - 30.01 -
19:40 77 79 75 NE 15.6 17.9 - - - - - - 30.01 -
20:10 77 79 79 NE 15.6 17.9 - - - - - - 30.01 -
20:40 77 79 80 NE 15.6 17.9 - - - - - - 30.00 -
20:50 77 79 80 NE 13.6 15.7 7 8.53 exactly 8.5 7 4.92 4.10 - 5.74 14 6.56 5.74 - 7.38 30.00 -
21:30 77 79 79 ENE 13.6 15.7 - - - - - - 29.99 -
21:50 78 79 74 ENE 13.6 15.7 8 8.20 exactly 8.2 6 3.28 2.46 - 4.10 8 8.20 7.38 - 9.02 29.98 -
22:10 78 79 74 ENE 11.7 13.4 - - - - - - 29.97 -
22:20 78 79 75 ENE 11.7 13.4 - - - - - - 29.97 -
22:30 78 79 76 ENE 11.7 13.4 - - - - - - 29.96 -
22:50 78 79 76 ENE 11.7 13.4 15 8.86 exactly 8.9 5 3.28 2.46 - 4.10 15 8.20 7.38 - 9.02 29.96 -
23:10 78 79 75 East 11.7 13.4 - - - - - - 29.94 -
23:30 78 80 75 ENE 9.7 11.2 - - - - - - 29.94 -
23:50 78
-
75 East 9.7 11.2 14 8.20 exactly 8.2 5 1.64 0.82 - 2.46 14 8.20 7.38 - 9.02 29.93 -
00:20 78 80 75 ENE 9.7 11.2 - - - - - - 29.92 -
00:50 78 80 78 ENE 9.7 11.2 14 8.20 exactly 8.2 4 3.28 2.46 - 4.10 14 8.20 7.38 - 9.02 29.91 -
01:00 78
-
78 ENE 11.7 13.4 - - - - - - 29.91 -0.06
01:10 78 80 77 ENE 11.7 13.4 - - - - - - 29.91 -
01:20 78 80 76 ENE 11.7 13.4 - - - - - - 29.91 -
01:30 78
-
77 ENE 9.7 11.2 - - - - - - 29.91 -
01:40 78 80 77 ENE 9.7 11.2 - - - - - - 29.91 -
01:50 78 80 76 East 9.7 11.2 14 8.53 exactly 8.5 4 1.64 0.82 - 2.46 14 8.20 7.38 - 9.02 29.91 -
02:40 78 79 72 East 9.7 11.2 - - - - - - 29.91 -
03:20 78 79 74 East 9.7 11.2 - - - - - - 29.92 -
03:30 78 79 74 East 9.7 11.2 - - - - - - 29.93 -
03:40 78 79 74 East 9.7 11.2 - - - - - - 29.93 -
03:50 78 79 75 East 9.7 11.2 9 8.20 exactly 8.2 4 1.64 0.82 - 2.46 9 8.20 7.38 - 9.02 29.93 -

Detailed Wave Spectra

Time Water Depth Wave Height Spectral Peak Period Average Wave Period Sampling Interval Wave Record
22:00 16060 ft 10.60 ft 12.9 sec 7.6 sec 0.6 sec 2400 sec
23:00 16060 ft 10.10 ft 11.4 sec 7.3 sec 0.6 sec 2400 sec
02:00 16060 ft 9.74 ft 11.4 sec 7.0 sec 0.6 sec 2400 sec
03:00 16060 ft 10.01 ft 10.8 sec 6.9 sec 0.6 sec 2400 sec
04:00 16060 ft 8.92 ft 12.1 sec 6.6 sec 0.6 sec 2400 sec
05:00 16060 ft 8.69 ft 10.8 sec 6.5 sec 0.6 sec 2400 sec
08:00 16060 ft 8.40 ft 11.4 sec 6.4 sec 0.6 sec 2400 sec
10:00 16060 ft 7.91 ft 10.8 sec 6.2 sec 0.6 sec 2400 sec
12:00 16060 ft 8.01 ft 10.8 sec 6.3 sec 0.6 sec 2400 sec
13:00 16060 ft 8.14 ft 10.0 sec 6.3 sec 0.6 sec 2400 sec
14:00 16060 ft 8.63 ft 6.7 sec 6.3 sec 0.6 sec 2400 sec
16:00 16060 ft 9.28 ft 7.1 sec 6.3 sec 0.6 sec 2400 sec
17:00 16060 ft 8.60 ft 7.1 sec 6.3 sec 0.6 sec 2400 sec
20:00 16060 ft 8.40 ft 7.7 sec 6.9 sec 0.6 sec 2400 sec
21:00 16060 ft 8.50 ft 7.1 sec 6.9 sec 0.6 sec 2400 sec
22:00 16060 ft 8.30 ft 7.7 sec 7.3 sec 0.6 sec 2400 sec
23:00 16060 ft 8.83 ft 14.8 sec 7.7 sec 0.6 sec 2400 sec
00:00 16060 ft 8.33 ft 13.8 sec 7.5 sec 0.6 sec 2400 sec
02:00 16060 ft 8.60 ft 13.8 sec 7.5 sec 0.6 sec 2400 sec
03:00 16060 ft 7.71 ft 9.1 sec 7.4 sec 0.6 sec 2400 sec